• Join FlightAware (Why Join?)
  • Login
  • US Flag 
08:45PM EST


 

Airport Tracker/Info


-or-


 

Live Flight TrackerFlight Track Log ✈ SKW7367 ✈ 11-Apr-2014 ✈ KDTW - KAPN

Flight Track Log - Related Links

Times and Time Zones

All times are in EDT time to prevent confusion due to time zone crossing. See the SKW7367 flight status page for this flight to view local times or setup timezone preferences in your user account.

Time Position Orientation Groundspeed Altitude Reporting Facility
EDT Latitude Longitude Course Direction KTS MPH feet Rate Location/Type
04:02PM 42.2061 -83.3672 North 152 175 1,200  Level Cleveland Center
04:03PM 42.1897 -83.3903 226° Southwest 173 199 2,300 2,280 Climbing Cleveland Center
04:04PM 42.1594 -83.4361 228° Southwest 204 235 4,600 3,120 Climbing Cleveland Center
04:05PM 42.1781 -83.5358 284° West 257 296 8,600 2,520 Climbing Cleveland Center
04:06PM 42.5602 -83.3500 North  Level FlightAware Approximate
04:06PM 42.2219 -83.6089 309° West 270 311 9,900  Level Cleveland Center
04:07PM 42.6502 -83.3500 North  Level FlightAware Approximate
04:07PM 42.2978 -83.6269 350° North 279 321 11,200  Level Cleveland Center
04:08PM 42.7403 -83.3500 North  Level FlightAware Approximate
04:08PM 42.3781 -83.6014 13° North 295 339 12,900  Level Cleveland Center
04:09PM 42.4808 -83.5572 18° North 317 365 13,900 960 Climbing Cleveland Center
04:10PM 42.5656 -83.5200 18° North 317 365 14,900 480 Climbing Cleveland Center
04:11PM 42.6494 -83.5033 North 308 354 14,900  Level Cleveland Center
04:12PM 42.7375 -83.5075 358° North 311 358 15,000  Climbing Cleveland Center
04:13PM 42.8247 -83.5078 360° North 312 359 14,900  Descending Cleveland Center
04:14PM 42.9128 -83.5106 359° North 315 362 15,000  Climbing Cleveland Center
04:15PM 43.0167 -83.5125 359° North 313 360 14,900 -60 Descending Cleveland Center
04:16PM 43.1028 -83.5131 360° North 311 358 14,900  Level Cleveland Center
04:17PM 43.1881 -83.5161 359° North 309 356 14,900  Level Cleveland Center
04:18PM 43.2742 -83.5178 359° North 309 356 14,900  Level Cleveland Center
04:19PM 43.3597 -83.5208 359° North 309 356 15,000  Climbing Cleveland Center
04:20PM 43.4467 -83.5217 360° North 309 356 14,900  Descending Cleveland Center
04:21PM 43.5514 -83.5247 359° North 312 359 15,000  Climbing Cleveland Center
04:22PM 43.6389 -83.5253 360° North 313 360 15,000  Level Cleveland Center
04:23PM 43.7267 -83.5283 359° North 313 360 15,000  Level Cleveland Center
04:24PM 43.8142 -83.5283 360° North 313 360 15,000 -540 Level Cleveland Center
04:25PM 43.9011 -83.5328 358° North 313 360 13,900 -1,020 Descending Cleveland Center
04:27PM 43.9869 -83.5347 359° North 313 360 12,900 -1,080 Descending Cleveland Center
04:28PM 44.0858 -83.5364 359° North 303 349 11,700 -900 Descending Cleveland Center
04:29PM 44.1539 -83.5408 357° North 291 335 11,100 -1,020 Descending Cleveland Center
04:30PM 44.2500 -83.5403 360° North 293 337 9,600 -1,200 Descending Cleveland Center
04:31PM 44.3519 -83.5425 359° North 284 327 8,300 -1,020 Descending Minneapolis Center
04:32PM 44.4328 -83.5444 359° North 276 318 7,200 -1,020 Descending Minneapolis Center
04:33PM 44.5153 -83.5456 359° North 276 318 6,200 -720 Descending Minneapolis Center
04:34PM 44.5892 -83.5483 358° North 273 314 5,800 -780 Descending Minneapolis Center
04:35PM 44.6700 -83.5492 360° North 273 314 4,700 -840 Descending Minneapolis Center
04:36PM 44.7408 -83.5536 357° North 266 306 4,100 -540 Descending Minneapolis Center
04:37PM 44.8189 -83.5575 358° North 264 304 3,600 -540 Descending Minneapolis Center
04:38PM 44.8892 -83.5597 359° North 261 300 3,100 -420 Descending Minneapolis Center
04:39PM 44.9636 -83.5600 360° North 254 292 2,800 -600 Descending Minneapolis Center
04:40PM 45.0106 -83.5611 359° North 181 208 1,900 -840 Descending Minneapolis Center
04:41PM 45.0481 -83.5611 360° North 136 157 1,100 -600 Descending Minneapolis Center
04:42PM 45.0803 -83.5611 360° North 135 155 700 -420 Descending Minneapolis Center